createdAt,value
2018-10-17T00:02:03.030Z,12.14
2018-10-17T00:04:31.409Z,12.11
2018-10-17T00:06:59.851Z,12.14
2018-10-17T00:09:28.217Z,12.13
2018-10-17T00:11:56.744Z,12.13
2018-10-17T00:14:25.190Z,12.13
2018-10-17T00:16:53.594Z,12.11
2018-10-17T00:19:22.019Z,12.10
2018-10-17T00:21:50.393Z,12.13
2018-10-17T00:24:18.835Z,12.18
2018-10-17T00:26:47.329Z,12.23
2018-10-17T00:29:15.760Z,12.29
2018-10-17T00:31:44.157Z,12.60
2018-10-17T00:34:12.579Z,12.78
2018-10-17T00:36:41.032Z,12.81
2018-10-17T00:39:10.879Z,12.66
2018-10-17T00:41:39.361Z,12.44
2018-10-17T00:44:07.872Z,12.26
2018-10-17T00:46:36.266Z,12.18
2018-10-17T00:49:04.916Z,12.15
2018-10-17T00:51:33.221Z,12.14
2018-10-17T00:54:01.625Z,12.12
2018-10-17T00:56:30.042Z,12.06
2018-10-17T00:59:07.386Z,11.91
2018-10-17T01:01:36.097Z,11.75
2018-10-17T01:04:04.617Z,11.58
2018-10-17T01:06:33.872Z,11.36
2018-10-17T01:09:05.369Z,11.21
2018-10-17T01:11:33.953Z,11.05
2018-10-17T01:14:02.529Z,11.07
2018-10-17T01:16:30.942Z,11.01
2018-10-17T01:18:59.483Z,10.99
2018-10-17T01:21:27.941Z,11.05
2018-10-17T01:23:56.338Z,11.18
2018-10-17T01:26:24.825Z,11.14
2018-10-17T01:28:53.289Z,11.18
2018-10-17T01:31:21.862Z,11.28
2018-10-17T01:33:50.345Z,11.33
2018-10-17T01:36:18.773Z,11.25
2018-10-17T01:38:47.232Z,11.13
2018-10-17T01:41:15.702Z,11.14
2018-10-17T01:43:44.098Z,11.17
2018-10-17T01:46:12.519Z,11.17
2018-10-17T01:48:40.911Z,11.13
2018-10-17T01:51:09.346Z,11.13
2018-10-17T01:53:37.769Z,11.14
2018-10-17T01:56:06.347Z,11.19
2018-10-17T01:58:34.746Z,11.28
2018-10-17T02:01:03.182Z,11.33
2018-10-17T02:03:31.557Z,11.28
2018-10-17T02:05:59.997Z,11.23
2018-10-17T02:08:28.497Z,11.20
2018-10-17T02:10:56.893Z,11.14
2018-10-17T02:13:25.289Z,11.14
2018-10-17T02:15:54.318Z,11.08
2018-10-17T02:18:22.705Z,11.06
2018-10-17T02:20:51.393Z,11.02
2018-10-17T02:23:19.772Z,11.01
2018-10-17T02:25:48.164Z,11.01
2018-10-17T02:28:16.528Z,11.03
2018-10-17T02:30:44.934Z,11.07
2018-10-17T02:33:13.333Z,11.10
2018-10-17T02:35:41.786Z,11.05
2018-10-17T02:38:10.149Z,11.04
2018-10-17T02:40:38.519Z,11.01
2018-10-17T02:43:07.130Z,11.03
2018-10-17T02:45:35.423Z,11.08
2018-10-17T02:48:03.885Z,11.14
2018-10-17T02:50:32.244Z,11.15
2018-10-17T02:53:00.933Z,11.19
2018-10-17T02:55:29.274Z,11.24
2018-10-17T02:57:57.715Z,11.26
2018-10-17T03:00:26.099Z,11.24
2018-10-17T03:02:54.514Z,11.22
2018-10-17T03:05:22.918Z,11.22
2018-10-17T03:07:51.324Z,11.25
2018-10-17T03:10:19.927Z,11.25
2018-10-17T03:12:48.327Z,11.22
2018-10-17T03:15:16.736Z,11.18
2018-10-17T03:17:45.161Z,11.16
2018-10-17T03:20:13.618Z,11.11
2018-10-17T03:22:42.026Z,11.09
2018-10-17T03:25:10.901Z,11.13
2018-10-17T03:27:39.272Z,11.14
2018-10-17T03:30:07.702Z,11.16
2018-10-17T03:32:36.093Z,11.19
2018-10-17T03:35:04.573Z,11.19
2018-10-17T03:37:32.958Z,11.12
2018-10-17T03:40:01.346Z,11.05
2018-10-17T03:42:29.730Z,11.03
2018-10-17T03:44:58.206Z,10.97
2018-10-17T03:47:26.601Z,10.89
2018-10-17T03:49:55.020Z,10.82
2018-10-17T03:52:23.400Z,10.74
2018-10-17T03:54:51.861Z,10.65
2018-10-17T03:57:20.256Z,10.77
2018-10-17T03:59:48.727Z,10.74
2018-10-17T04:02:17.134Z,10.73
2018-10-17T04:04:45.547Z,10.93
2018-10-17T04:07:13.959Z,11.10
2018-10-17T04:09:42.439Z,11.14
2018-10-17T04:12:10.831Z,11.12
2018-10-17T04:14:39.239Z,11.06
2018-10-17T04:17:07.694Z,10.99
2018-10-17T04:19:36.048Z,10.88
2018-10-17T04:22:04.451Z,10.81
2018-10-17T04:24:32.890Z,10.75
2018-10-17T04:27:01.251Z,10.72
2018-10-17T04:29:29.694Z,10.68
2018-10-17T04:31:58.088Z,10.55
2018-10-17T04:34:26.488Z,10.58
2018-10-17T04:37:00.456Z,10.55
2018-10-17T04:39:28.837Z,10.48
2018-10-17T04:41:57.222Z,10.47
2018-10-17T04:44:25.822Z,10.45
2018-10-17T04:46:54.274Z,10.50
2018-10-17T04:49:22.613Z,10.56
2018-10-17T04:51:51.073Z,10.59
2018-10-17T04:54:19.477Z,10.64
2018-10-17T04:56:47.881Z,10.69
2018-10-17T04:59:16.305Z,10.69
2018-10-17T05:01:44.785Z,10.69
2018-10-17T05:04:13.318Z,10.73
2018-10-17T05:06:41.807Z,10.73
2018-10-17T05:09:10.876Z,10.74
2018-10-17T05:11:40.045Z,10.74
2018-10-17T05:14:08.536Z,10.75
2018-10-17T05:16:37.329Z,10.69
2018-10-17T05:19:05.916Z,10.66
2018-10-17T05:21:34.269Z,10.61
2018-10-17T05:24:02.698Z,10.54
2018-10-17T05:26:31.245Z,10.58
2018-10-17T05:28:59.698Z,10.57
2018-10-17T05:31:28.115Z,10.55
2018-10-17T05:33:56.542Z,10.54
2018-10-17T05:36:25.041Z,10.52
2018-10-17T05:38:53.433Z,10.55
2018-10-17T05:41:21.823Z,10.61
2018-10-17T05:43:50.346Z,10.58
2018-10-17T05:46:18.779Z,10.60
2018-10-17T05:48:47.224Z,10.58
2018-10-17T05:51:15.880Z,10.64
2018-10-17T05:53:44.307Z,10.64
2018-10-17T05:56:12.697Z,10.67
2018-10-17T05:58:41.189Z,10.74
2018-10-17T06:01:09.621Z,10.76
2018-10-17T06:03:38.031Z,10.68
2018-10-17T06:06:06.495Z,10.65
2018-10-17T06:08:34.983Z,10.72
2018-10-17T06:11:03.392Z,10.63
2018-10-17T06:13:31.866Z,10.55
2018-10-17T06:16:00.301Z,10.66
2018-10-17T06:18:28.786Z,10.79
2018-10-17T06:20:57.206Z,10.75
2018-10-17T06:23:25.642Z,10.77
2018-10-17T06:25:54.121Z,10.71
2018-10-17T06:28:22.607Z,10.65
2018-10-17T06:30:51.177Z,10.73
2018-10-17T06:33:19.501Z,10.85
2018-10-17T06:35:47.915Z,11.00
2018-10-17T06:38:16.289Z,10.94
2018-10-17T06:40:44.738Z,10.92
2018-10-17T06:43:13.146Z,10.95
2018-10-17T06:45:41.617Z,10.96
2018-10-17T06:48:10.041Z,10.96
2018-10-17T06:50:38.466Z,11.00
2018-10-17T06:53:06.948Z,11.02
2018-10-17T06:55:35.360Z,11.10
2018-10-17T06:58:03.751Z,11.23
2018-10-17T07:00:32.226Z,11.33
2018-10-17T07:03:00.619Z,11.37
2018-10-17T07:05:29.025Z,11.39
2018-10-17T07:07:57.469Z,11.42
2018-10-17T07:10:26.974Z,11.40
2018-10-17T07:12:55.486Z,11.39
2018-10-17T07:15:23.941Z,11.46
2018-10-17T07:17:52.281Z,11.45
2018-10-17T07:20:20.777Z,11.47
2018-10-17T07:22:49.170Z,11.63
2018-10-17T07:25:17.661Z,11.71
2018-10-17T07:27:45.990Z,11.81
2018-10-17T07:30:14.419Z,11.91
2018-10-17T07:32:42.886Z,11.98
2018-10-17T07:35:11.491Z,12.11
2018-10-17T07:37:39.898Z,12.24
2018-10-17T07:40:08.305Z,12.31
2018-10-17T07:42:36.811Z,12.42
2018-10-17T07:45:05.973Z,12.31
2018-10-17T07:47:34.415Z,12.31
2018-10-17T07:50:02.962Z,12.46
2018-10-17T07:52:31.476Z,12.56
2018-10-17T07:54:59.898Z,12.60
2018-10-17T07:57:28.302Z,12.63
2018-10-17T07:59:56.777Z,12.69
2018-10-17T08:02:26.241Z,12.82
2018-10-17T08:04:55.014Z,12.86
2018-10-17T08:07:24.477Z,12.91
2018-10-17T08:09:54.305Z,12.99
2018-10-17T08:12:22.890Z,13.09
2018-10-17T08:14:51.241Z,13.20
2018-10-17T08:17:20.587Z,13.33
2018-10-17T08:19:48.965Z,13.45
2018-10-17T08:22:18.057Z,13.61
2018-10-17T08:24:46.542Z,13.64
2018-10-17T08:27:15.089Z,13.66
2018-10-17T08:29:43.457Z,13.76
2018-10-17T08:32:11.857Z,13.96
2018-10-17T08:34:41.171Z,14.18
2018-10-17T08:37:10.462Z,14.41
2018-10-17T08:39:38.454Z,14.59
2018-10-17T08:42:07.277Z,14.77
2018-10-17T08:44:36.421Z,14.95
2018-10-17T08:47:05.250Z,15.05
2018-10-17T08:49:35.229Z,15.18
2018-10-17T08:52:03.625Z,15.27
2018-10-17T08:54:32.081Z,15.40
2018-10-17T08:57:01.337Z,15.53
2018-10-17T08:59:29.768Z,15.71
2018-10-17T09:01:58.179Z,15.84
2018-10-17T09:04:27.709Z,15.92
2018-10-17T09:06:56.122Z,15.98
2018-10-17T09:09:24.527Z,16.10
2018-10-17T09:11:52.992Z,16.21
2018-10-17T09:14:21.447Z,16.09
2018-10-17T09:16:49.879Z,16.16
2018-10-17T09:19:18.324Z,16.30
2018-10-17T09:21:47.104Z,16.32
2018-10-17T09:24:15.166Z,16.36
2018-10-17T09:26:43.623Z,16.39
2018-10-17T09:29:12.029Z,16.46
2018-10-17T09:31:40.429Z,16.34
2018-10-17T09:34:08.901Z,16.31
2018-10-17T09:36:38.500Z,16.43
2018-10-17T09:39:13.935Z,16.52
2018-10-17T09:41:42.370Z,16.46
2018-10-17T09:44:10.749Z,16.61
2018-10-17T09:46:39.301Z,16.66
2018-10-17T09:49:07.680Z,16.83
2018-10-17T09:51:36.820Z,16.95
2018-10-17T09:54:05.487Z,16.99
2018-10-17T09:56:39.944Z,16.98
2018-10-17T09:59:10.434Z,17.20
2018-10-17T10:01:44.056Z,17.30
2018-10-17T10:04:12.508Z,17.35
2018-10-17T10:06:43.031Z,17.53
2018-10-17T10:09:11.925Z,17.71
2018-10-17T10:11:40.462Z,17.92
2018-10-17T10:14:14.502Z,17.90
2018-10-17T10:16:42.949Z,18.03
2018-10-17T10:19:12.080Z,18.11
2018-10-17T10:21:40.525Z,18.06
2018-10-17T10:24:09.671Z,18.03
2018-10-17T10:26:38.022Z,18.04
2018-10-17T10:29:06.445Z,18.10
2018-10-17T10:31:47.667Z,18.16
2018-10-17T10:34:16.173Z,18.33
2018-10-17T10:36:44.568Z,18.51
2018-10-17T10:39:13.358Z,18.54
2018-10-17T10:41:42.117Z,18.56
2018-10-17T10:44:17.868Z,18.74
2018-10-17T10:46:46.223Z,18.73
2018-10-17T10:49:15.817Z,18.81
2018-10-17T10:51:44.345Z,18.87
2018-10-17T10:54:12.694Z,18.80
2018-10-17T10:56:57.248Z,18.96
2018-10-17T10:59:25.973Z,19.06
2018-10-17T11:01:54.340Z,19.38
2018-10-17T11:04:22.789Z,19.59
2018-10-17T11:06:52.214Z,19.70
2018-10-17T11:09:30.983Z,19.44
2018-10-17T11:11:59.418Z,19.42
2018-10-17T11:14:28.052Z,19.83
2018-10-17T11:16:56.521Z,19.92
2018-10-17T11:19:25.009Z,20.02
2018-10-17T11:21:53.731Z,20.07
2018-10-17T11:24:22.119Z,20.08
2018-10-17T11:26:50.516Z,20.01
2018-10-17T11:29:19.003Z,20.06
2018-10-17T11:31:47.790Z,20.20
2018-10-17T11:34:16.210Z,20.31
2018-10-17T11:36:44.648Z,20.15
2018-10-17T11:39:13.219Z,20.67
2018-10-17T11:41:41.882Z,20.90
2018-10-17T11:44:10.238Z,21.09
2018-10-17T11:46:38.647Z,21.18
2018-10-17T11:49:07.098Z,21.21
2018-10-17T11:51:35.498Z,21.24
2018-10-17T11:54:03.960Z,21.22
2018-10-17T11:56:32.358Z,21.30
2018-10-17T11:59:00.860Z,21.53
2018-10-17T12:01:29.212Z,21.58
2018-10-17T12:03:57.854Z,21.62
2018-10-17T12:06:26.174Z,21.40
2018-10-17T12:08:54.490Z,21.60
2018-10-17T12:11:22.943Z,21.79
2018-10-17T12:13:51.341Z,21.78
2018-10-17T12:16:19.746Z,21.84
2018-10-17T12:18:48.120Z,21.75
2018-10-17T12:21:16.588Z,21.78
2018-10-17T12:23:44.941Z,21.84
2018-10-17T12:26:13.364Z,21.75
2018-10-17T12:28:41.848Z,21.52
2018-10-17T12:31:10.202Z,21.73
2018-10-17T12:33:38.578Z,22.07
2018-10-17T12:36:07.080Z,22.03
2018-10-17T12:38:35.447Z,22.00
2018-10-17T12:41:04.162Z,21.83
2018-10-17T12:43:32.551Z,21.97
2018-10-17T12:46:01.286Z,22.45
2018-10-17T12:48:30.122Z,22.69
2018-10-17T12:50:58.522Z,22.74
2018-10-17T12:53:26.932Z,22.90
2018-10-17T12:55:55.424Z,22.98
2018-10-17T12:58:23.802Z,22.97
2018-10-17T13:00:52.622Z,22.84
2018-10-17T13:03:21.017Z,23.21
2018-10-17T13:05:49.394Z,23.24
2018-10-17T13:08:17.870Z,23.52
2018-10-17T13:10:46.252Z,23.12
2018-10-17T13:13:14.765Z,23.61
2018-10-17T13:15:43.171Z,24.11
2018-10-17T13:18:11.675Z,24.26
2018-10-17T13:20:40.059Z,24.58
2018-10-17T13:23:08.528Z,25.48
2018-10-17T13:25:36.901Z,26.37
2018-10-17T13:28:05.323Z,27.17
2018-10-17T13:30:33.782Z,27.65
2018-10-17T13:33:02.199Z,27.66
2018-10-17T13:35:30.609Z,28.23
2018-10-17T13:37:59.046Z,28.69
2018-10-17T13:40:27.409Z,27.58
2018-10-17T13:42:55.836Z,27.74
2018-10-17T13:45:24.233Z,27.08
2018-10-17T13:47:52.640Z,25.81
2018-10-17T13:50:21.045Z,25.67
2018-10-17T13:52:49.486Z,25.49
2018-10-17T13:55:18.395Z,25.37
2018-10-17T13:57:46.820Z,25.18
2018-10-17T14:00:15.301Z,25.24
2018-10-17T14:02:44.545Z,25.48
2018-10-17T14:05:13.110Z,25.97
2018-10-17T14:07:41.545Z,26.47
2018-10-17T14:10:09.952Z,27.06
2018-10-17T14:12:38.594Z,27.20
2018-10-17T14:15:07.113Z,27.36
2018-10-17T14:17:35.640Z,27.49
2018-10-17T14:20:04.120Z,27.48
2018-10-17T14:22:32.533Z,27.43
2018-10-17T14:25:00.924Z,27.96
2018-10-17T14:27:29.312Z,28.41
2018-10-17T14:29:57.772Z,28.69
2018-10-17T14:32:26.769Z,28.57
2018-10-17T14:34:55.201Z,28.57
2018-10-17T14:37:24.255Z,28.47
2018-10-17T14:39:53.285Z,28.81
2018-10-17T14:42:21.767Z,28.36
2018-10-17T14:44:50.170Z,27.91
2018-10-17T14:47:18.581Z,27.77
2018-10-17T14:49:48.266Z,27.82
2018-10-17T14:52:16.649Z,27.67
2018-10-17T14:54:46.400Z,27.55
2018-10-17T14:57:14.827Z,27.25
2018-10-17T14:59:43.253Z,26.43
2018-10-17T15:02:11.717Z,25.86
2018-10-17T15:04:41.153Z,25.89
2018-10-17T15:07:09.583Z,25.35
2018-10-17T15:09:40.300Z,25.01
2018-10-17T15:12:08.913Z,24.71
2018-10-17T15:14:37.304Z,25.17
2018-10-17T15:17:05.842Z,25.94
2018-10-17T15:19:34.232Z,25.66
2018-10-17T15:22:04.070Z,26.20
2018-10-17T15:24:32.512Z,25.72
2018-10-17T15:27:00.936Z,25.34
2018-10-17T15:29:29.323Z,25.04
2018-10-17T15:31:57.871Z,24.45
2018-10-17T15:34:26.180Z,23.92
2018-10-17T15:36:54.756Z,23.62
2018-10-17T15:39:23.114Z,23.44
2018-10-17T15:41:51.574Z,23.29
2018-10-17T15:44:19.929Z,23.14
2018-10-17T15:46:48.368Z,23.04
2018-10-17T15:49:16.790Z,23.06
2018-10-17T15:51:45.229Z,22.89
2018-10-17T15:54:13.692Z,22.53
2018-10-17T15:56:42.026Z,22.26
2018-10-17T15:59:10.506Z,21.95
2018-10-17T16:01:38.949Z,21.80
2018-10-17T16:04:07.329Z,21.54
2018-10-17T16:06:35.754Z,21.38
2018-10-17T16:09:05.658Z,21.27
2018-10-17T16:11:34.666Z,21.06
2018-10-17T16:14:10.009Z,20.90
2018-10-17T16:16:38.534Z,20.74
2018-10-17T16:19:07.158Z,20.66
2018-10-17T16:21:35.534Z,20.54
2018-10-17T16:24:04.038Z,20.51
2018-10-17T16:26:32.415Z,20.42
2018-10-17T16:29:00.928Z,20.22
2018-10-17T16:31:30.782Z,20.08
2018-10-17T16:33:59.245Z,19.95
2018-10-17T16:36:27.661Z,19.80
2018-10-17T16:38:56.053Z,19.71
2018-10-17T16:41:24.578Z,19.63
2018-10-17T16:43:53.040Z,19.50
2018-10-17T16:46:21.458Z,19.45
2018-10-17T16:48:49.944Z,19.38
2018-10-17T16:51:18.459Z,19.28
2018-10-17T16:53:46.879Z,19.19
2018-10-17T16:56:15.281Z,19.10
2018-10-17T16:58:43.775Z,18.94
2018-10-17T17:01:12.135Z,18.91
2018-10-17T17:03:40.675Z,18.79
2018-10-17T17:06:09.102Z,18.79
2018-10-17T17:08:37.552Z,18.64
2018-10-17T17:11:06.506Z,18.58
2018-10-17T17:13:35.910Z,18.53
2018-10-17T17:16:04.846Z,18.47
2018-10-17T17:18:34.081Z,18.39
2018-10-17T17:21:03.225Z,18.34
2018-10-17T17:23:42.423Z,18.25
2018-10-17T17:26:11.311Z,18.15
2018-10-17T17:28:42.750Z,18.02
2018-10-17T17:31:11.170Z,17.92
2018-10-17T17:33:39.566Z,17.78
2018-10-17T17:36:10.727Z,17.68
2018-10-17T17:38:39.140Z,17.61
2018-10-17T17:41:08.137Z,17.55
2018-10-17T17:43:37.681Z,17.58
2018-10-17T17:46:07.509Z,17.40
2018-10-17T17:48:36.290Z,17.34
2018-10-17T17:51:05.179Z,17.29
2018-10-17T17:53:35.950Z,17.30
2018-10-17T17:56:06.958Z,17.22
2018-10-17T17:58:38.827Z,17.26
2018-10-17T18:01:09.876Z,17.18
2018-10-17T18:03:38.409Z,17.05
2018-10-17T18:06:07.383Z,17.04
2018-10-17T18:08:35.794Z,17.01
2018-10-17T18:11:24.604Z,16.91
2018-10-17T18:13:54.206Z,16.91
2018-10-17T18:16:22.681Z,16.85
2018-10-17T18:18:51.114Z,16.79
2018-10-17T18:21:19.524Z,16.69
2018-10-17T18:23:48.001Z,16.70
2018-10-17T18:26:16.535Z,16.48
2018-10-17T18:28:45.000Z,16.41
2018-10-17T18:31:13.530Z,16.39
2018-10-17T18:33:41.937Z,16.30
2018-10-17T18:36:10.413Z,16.31
2018-10-17T18:38:38.848Z,16.21
2018-10-17T18:41:07.372Z,16.12
2018-10-17T18:43:35.790Z,16.13
2018-10-17T18:46:04.271Z,16.01
2018-10-17T18:48:32.811Z,16.07
2018-10-17T18:51:01.332Z,15.99
2018-10-17T18:53:30.610Z,15.96
2018-10-17T18:55:59.071Z,15.97
2018-10-17T18:58:27.545Z,16.00
2018-10-17T19:00:56.233Z,15.86
2018-10-17T19:03:24.757Z,15.81
2018-10-17T19:05:53.222Z,15.69
2018-10-17T19:08:21.711Z,15.71
2018-10-17T19:10:50.777Z,15.64
2018-10-17T19:13:19.497Z,15.59
2018-10-17T19:15:47.985Z,15.51
2018-10-17T19:18:16.453Z,15.48
2018-10-17T19:20:44.885Z,15.35
2018-10-17T19:23:13.861Z,15.34
2018-10-17T19:25:42.304Z,15.30
2018-10-17T19:28:10.781Z,15.29
2018-10-17T19:30:39.614Z,15.33
2018-10-17T19:33:08.095Z,15.33
2018-10-17T19:35:36.732Z,15.34
2018-10-17T19:38:05.633Z,15.33
2018-10-17T19:40:34.209Z,15.26
2018-10-17T19:43:02.637Z,15.23
2018-10-17T19:45:31.114Z,15.26
2018-10-17T19:47:59.965Z,15.23
2018-10-17T19:50:28.386Z,15.22
2018-10-17T19:52:56.851Z,15.20
2018-10-17T19:55:25.300Z,15.23
2018-10-17T19:57:53.725Z,15.18
2018-10-17T20:00:22.194Z,15.20
2018-10-17T20:02:50.666Z,15.17
2018-10-17T20:05:19.124Z,15.08
2018-10-17T20:07:47.766Z,15.12
2018-10-17T20:10:20.347Z,15.01
2018-10-17T20:12:48.739Z,15.00
2018-10-17T20:15:17.278Z,14.99
2018-10-17T20:17:45.642Z,14.90
2018-10-17T20:20:14.104Z,14.94
2018-10-17T20:22:42.630Z,14.98
2018-10-17T20:25:12.083Z,14.97
2018-10-17T20:27:40.459Z,15.01
2018-10-17T20:30:09.601Z,15.04
2018-10-17T20:32:38.095Z,15.02
2018-10-17T20:35:06.917Z,15.06
2018-10-17T20:37:35.313Z,15.03
2018-10-17T20:40:04.073Z,15.02
2018-10-17T20:42:32.599Z,15.01
2018-10-17T20:45:01.013Z,14.92
2018-10-17T20:47:29.489Z,14.85
2018-10-17T20:49:57.935Z,14.85
2018-10-17T20:52:29.020Z,14.84
2018-10-17T20:54:57.325Z,14.82
2018-10-17T20:57:25.827Z,14.78
2018-10-17T20:59:54.225Z,14.72
2018-10-17T21:02:22.730Z,14.72
2018-10-17T21:04:51.104Z,14.74
2018-10-17T21:07:19.529Z,14.71
2018-10-17T21:09:48.779Z,14.65
2018-10-17T21:12:17.261Z,14.63
2018-10-17T21:14:46.081Z,14.56
2018-10-17T21:17:14.625Z,14.57
2018-10-17T21:19:43.046Z,14.57
2018-10-17T21:22:11.529Z,14.53
2018-10-17T21:24:40.018Z,14.51
2018-10-17T21:27:08.540Z,14.50
2018-10-17T21:29:36.948Z,14.46
2018-10-17T21:32:05.593Z,14.40
2018-10-17T21:34:33.980Z,14.33
2018-10-17T21:37:03.013Z,14.35
2018-10-17T21:39:31.474Z,14.32
2018-10-17T21:41:59.921Z,14.30
2018-10-17T21:44:28.335Z,14.26
2018-10-17T21:46:56.787Z,14.29
2018-10-17T21:49:25.233Z,14.31
2018-10-17T21:51:54.160Z,14.32
2018-10-17T21:54:22.600Z,14.29
2018-10-17T21:56:51.033Z,14.22
2018-10-17T21:59:19.489Z,14.21
2018-10-17T22:01:47.957Z,14.17
2018-10-17T22:04:17.481Z,14.14
2018-10-17T22:06:45.928Z,14.16
2018-10-17T22:09:14.373Z,14.14
2018-10-17T22:11:42.869Z,14.14
2018-10-17T22:14:11.407Z,14.13
2018-10-17T22:16:45.058Z,14.10
2018-10-17T22:19:13.746Z,14.10
2018-10-17T22:21:41.910Z,14.08
2018-10-17T22:24:10.397Z,14.07
2018-10-17T22:26:39.594Z,14.10
2018-10-17T22:29:08.156Z,14.04
2018-10-17T22:31:37.084Z,14.03
2018-10-17T22:34:05.573Z,13.99
2018-10-17T22:36:34.005Z,13.99
2018-10-17T22:39:02.546Z,13.99
2018-10-17T22:41:31.030Z,13.97
2018-10-17T22:43:59.431Z,13.97
2018-10-17T22:46:27.900Z,13.91
2018-10-17T22:48:56.330Z,13.89
2018-10-17T22:51:24.737Z,13.86
2018-10-17T22:53:53.176Z,13.87
2018-10-17T22:56:21.598Z,13.85
2018-10-17T22:58:50.082Z,13.79
2018-10-17T23:01:18.475Z,13.80
2018-10-17T23:03:50.476Z,13.79
2018-10-17T23:06:18.928Z,13.78
2018-10-17T23:08:47.357Z,13.76
2018-10-17T23:11:15.733Z,13.75
2018-10-17T23:13:44.158Z,13.72
2018-10-17T23:16:12.521Z,13.68
2018-10-17T23:18:40.921Z,13.61
2018-10-17T23:21:09.401Z,13.62
2018-10-17T23:23:37.841Z,13.58
2018-10-17T23:26:06.871Z,13.55
2018-10-17T23:28:35.250Z,13.45
2018-10-17T23:31:03.673Z,13.51
2018-10-17T23:33:32.102Z,13.50
2018-10-17T23:36:00.656Z,13.46
2018-10-17T23:38:29.090Z,13.40
2018-10-17T23:40:57.527Z,13.38
2018-10-17T23:43:25.964Z,13.38
2018-10-17T23:45:54.357Z,13.37
2018-10-17T23:48:22.757Z,13.34
2018-10-17T23:50:51.198Z,13.34
2018-10-17T23:53:19.605Z,13.27
2018-10-17T23:55:48.028Z,13.26
2018-10-17T23:58:16.450Z,13.26
